Portada
METAR-TAF:

METAR-TAF

Aeroports :

Burgos, Espanya

latitud: 42-22N, longitud: 003-38W, altitud: 894 m

Observació

L'informe es va fer fa 36 minuts, a les 03:00 UTC
Vent 9 kt del Nord-Est
Temperatura 17°C
Humitat 94%
Pressió 1024 hPa
Visibilitat: 9000 m

METAR: LEBG 220300Z AUTO 05009KT 9000 NCD 17/16 Q1024

Hora: 05:36 (03:36 UTC)

Pronòstic

L'informe es va fer fa 1 hora i 36 minuts, a les 02:00 UTC
Pronòstic vàlid del 22 a les 03 UTC al 22 a les 12 UTC
Vent 10 kt del Nord-Est
Visibilitat 10 km o més
sense núvols per sota de 1500 mi sense presència de cumulonimbus.
Probabilitat 40% :
Temporalment
l' 22 a les 03 UTC al 22 a les 08 UTC
Cel ennuvolat a una alçada de 600 ft
Evolucionant progressivament
l' 22 a les 07 UTC al 22 a les 09 UTC
Vent 5 kt amb direcció variable

TAF: LEBG 220200Z 2203/2212 04010KT CAVOK PROB40 TEMPO 2203/2208 BKN006 BECMG 2207/2209 VRB05KT

Observacions i pronòstics meteorològics de més de 4000 aeroports (METAR i TAF).

Les estacions disponibles són els punts grocs i vermells al mapa.

Posi el ratolí al punt desitjat per veure el nom de l'estació.

Feu clic per veure les observacions i els pronòstics meteorològics.

Per canviar el mapa: feu clic els botons verds amb una creu de color negre per apropar; al botó verd amb un guió per allunyar la imatge; o en les fletxes verdes per a mapes adjacents.


METAR-TAF: